sensor_id;sensor_type;location;lat;lon;timestamp;P1;durP1;ratioP1;P2;durP2;ratioP2
75437;SDS011;64015;49.392;15.582;2023-02-07T00:01:29;21.85;;;9.40;;
75437;SDS011;64015;49.392;15.582;2023-02-07T00:03:55;26.77;;;9.68;;
75437;SDS011;64015;49.392;15.582;2023-02-07T00:06:26;28.00;;;11.73;;
75437;SDS011;64015;49.392;15.582;2023-02-07T00:08:54;22.02;;;10.43;;
75437;SDS011;64015;49.392;15.582;2023-02-07T00:11:23;25.60;;;11.18;;
75437;SDS011;64015;49.392;15.582;2023-02-07T00:13:50;19.00;;;8.60;;
75437;SDS011;64015;49.392;15.582;2023-02-07T00:16:20;23.42;;;10.10;;
75437;SDS011;64015;49.392;15.582;2023-02-07T00:18:47;26.15;;;10.48;;
75437;SDS011;64015;49.392;15.582;2023-02-07T00:21:31;27.40;;;10.88;;
75437;SDS011;64015;49.392;15.582;2023-02-07T00:23:56;27.95;;;10.98;;
75437;SDS011;64015;49.392;15.582;2023-02-07T00:26:26;21.83;;;8.98;;
75437;SDS011;64015;49.392;15.582;2023-02-07T00:28:52;23.67;;;9.63;;
75437;SDS011;64015;49.392;15.582;2023-02-07T00:31:20;19.88;;;9.02;;
75437;SDS011;64015;49.392;15.582;2023-02-07T00:33:51;15.93;;;7.57;;
75437;SDS011;64015;49.392;15.582;2023-02-07T00:36:20;23.67;;;9.65;;
75437;SDS011;64015;49.392;15.582;2023-02-07T00:41:30;18.27;;;7.80;;
75437;SDS011;64015;49.392;15.582;2023-02-07T00:43:56;25.48;;;10.82;;
75437;SDS011;64015;49.392;15.582;2023-02-07T00:46:22;28.98;;;11.35;;
75437;SDS011;64015;49.392;15.582;2023-02-07T00:48:48;24.75;;;9.30;;
75437;SDS011;64015;49.392;15.582;2023-02-07T00:51:15;30.48;;;10.75;;
75437;SDS011;64015;49.392;15.582;2023-02-07T00:53:41;23.50;;;8.65;;
75437;SDS011;64015;49.392;15.582;2023-02-07T00:56:18;31.83;;;10.65;;
75437;SDS011;64015;49.392;15.582;2023-02-07T00:58:44;33.78;;;9.40;;
75437;SDS011;64015;49.392;15.582;2023-02-07T01:01:10;26.60;;;10.88;;
75437;SDS011;64015;49.392;15.582;2023-02-07T01:03:36;25.75;;;10.32;;
75437;SDS011;64015;49.392;15.582;2023-02-07T01:06:03;25.40;;;8.55;;
75437;SDS011;64015;49.392;15.582;2023-02-07T01:08:29;28.80;;;11.20;;
75437;SDS011;64015;49.392;15.582;2023-02-07T01:10:55;26.52;;;10.77;;
75437;SDS011;64015;49.392;15.582;2023-02-07T01:13:21;20.88;;;10.45;;
75437;SDS011;64015;49.392;15.582;2023-02-07T01:15:47;34.10;;;10.70;;
75437;SDS011;64015;49.392;15.582;2023-02-07T01:18:13;30.55;;;10.50;;
75437;SDS011;64015;49.392;15.582;2023-02-07T01:20:39;29.23;;;10.07;;
75437;SDS011;64015;49.392;15.582;2023-02-07T01:23:06;29.88;;;10.68;;
75437;SDS011;64015;49.392;15.582;2023-02-07T01:25:32;24.75;;;10.50;;
75437;SDS011;64015;49.392;15.582;2023-02-07T01:27:58;20.17;;;8.95;;
75437;SDS011;64015;49.392;15.582;2023-02-07T01:30:24;28.17;;;9.75;;
75437;SDS011;64015;49.392;15.582;2023-02-07T01:32:49;24.35;;;9.68;;
75437;SDS011;64015;49.392;15.582;2023-02-07T01:35:15;28.95;;;9.82;;
75437;SDS011;64015;49.392;15.582;2023-02-07T01:37:41;20.90;;;8.60;;
75437;SDS011;64015;49.392;15.582;2023-02-07T01:40:07;25.30;;;10.70;;
75437;SDS011;64015;49.392;15.582;2023-02-07T01:42:33;27.05;;;8.10;;
75437;SDS011;64015;49.392;15.582;2023-02-07T01:45:11;21.85;;;8.80;;
75437;SDS011;64015;49.392;15.582;2023-02-07T01:47:54;21.33;;;8.85;;
75437;SDS011;64015;49.392;15.582;2023-02-07T01:50:22;18.45;;;8.95;;
75437;SDS011;64015;49.392;15.582;2023-02-07T01:52:48;24.88;;;9.25;;
75437;SDS011;64015;49.392;15.582;2023-02-07T01:55:15;28.75;;;10.68;;
75437;SDS011;64015;49.392;15.582;2023-02-07T01:57:45;19.25;;;8.07;;
75437;SDS011;64015;49.392;15.582;2023-02-07T02:00:20;24.30;;;8.52;;
75437;SDS011;64015;49.392;15.582;2023-02-07T02:02:47;18.23;;;7.63;;
75437;SDS011;64015;49.392;15.582;2023-02-07T02:05:13;25.02;;;7.07;;
75437;SDS011;64015;49.392;15.582;2023-02-07T02:07:40;20.63;;;10.32;;
75437;SDS011;64015;49.392;15.582;2023-02-07T02:10:17;19.35;;;8.80;;
75437;SDS011;64015;49.392;15.582;2023-02-07T02:18:14;15.98;;;7.40;;
75437;SDS011;64015;49.392;15.582;2023-02-07T02:23:41;22.35;;;8.75;;
75437;SDS011;64015;49.392;15.582;2023-02-07T02:34:43;18.45;;;5.43;;
75437;SDS011;64015;49.392;15.582;2023-02-07T02:37:40;29.25;;;10.63;;
75437;SDS011;64015;49.392;15.582;2023-02-07T02:40:41;18.95;;;7.63;;
75437;SDS011;64015;49.392;15.582;2023-02-07T02:43:10;21.90;;;8.90;;
75437;SDS011;64015;49.392;15.582;2023-02-07T02:45:51;17.70;;;7.93;;
75437;SDS011;64015;49.392;15.582;2023-02-07T02:48:23;23.58;;;7.82;;
75437;SDS011;64015;49.392;15.582;2023-02-07T02:50:51;28.88;;;8.23;;
75437;SDS011;64015;49.392;15.582;2023-02-07T02:53:18;19.08;;;7.80;;
75437;SDS011;64015;49.392;15.582;2023-02-07T03:12:06;20.20;;;6.22;;
75437;SDS011;64015;49.392;15.582;2023-02-07T03:14:44;19.08;;;7.07;;
75437;SDS011;64015;49.392;15.582;2023-02-07T03:17:36;26.15;;;9.93;;
75437;SDS011;64015;49.392;15.582;2023-02-07T03:20:12;14.95;;;5.22;;
75437;SDS011;64015;49.392;15.582;2023-02-07T03:22:45;18.85;;;6.97;;
75437;SDS011;64015;49.392;15.582;2023-02-07T03:25:13;20.67;;;8.50;;
75437;SDS011;64015;49.392;15.582;2023-02-07T03:27:40;19.05;;;7.95;;
75437;SDS011;64015;49.392;15.582;2023-02-07T03:30:07;25.25;;;8.57;;
75437;SDS011;64015;49.392;15.582;2023-02-07T03:32:37;23.58;;;8.52;;
75437;SDS011;64015;49.392;15.582;2023-02-07T03:35:13;23.08;;;8.00;;
75437;SDS011;64015;49.392;15.582;2023-02-07T03:40:17;13.90;;;5.72;;
75437;SDS011;64015;49.392;15.582;2023-02-07T03:42:50;17.70;;;7.00;;
75437;SDS011;64015;49.392;15.582;2023-02-07T03:45:22;17.73;;;8.60;;
75437;SDS011;64015;49.392;15.582;2023-02-07T03:47:48;20.55;;;7.70;;
75437;SDS011;64015;49.392;15.582;2023-02-07T03:50:14;21.00;;;7.40;;
75437;SDS011;64015;49.392;15.582;2023-02-07T03:52:40;20.65;;;8.88;;
75437;SDS011;64015;49.392;15.582;2023-02-07T03:55:06;21.15;;;7.57;;
75437;SDS011;64015;49.392;15.582;2023-02-07T03:57:32;21.67;;;8.93;;
75437;SDS011;64015;49.392;15.582;2023-02-07T03:59:58;19.25;;;7.97;;
75437;SDS011;64015;49.392;15.582;2023-02-07T04:02:24;28.33;;;9.32;;
75437;SDS011;64015;49.392;15.582;2023-02-07T04:04:49;22.35;;;8.07;;
75437;SDS011;64015;49.392;15.582;2023-02-07T04:07:15;14.25;;;7.05;;
75437;SDS011;64015;49.392;15.582;2023-02-07T04:09:41;20.67;;;8.82;;
75437;SDS011;64015;49.392;15.582;2023-02-07T04:12:07;17.50;;;6.82;;
75437;SDS011;64015;49.392;15.582;2023-02-07T04:14:34;16.00;;;6.75;;
75437;SDS011;64015;49.392;15.582;2023-02-07T04:17:00;17.48;;;7.45;;
75437;SDS011;64015;49.392;15.582;2023-02-07T04:19:25;21.58;;;7.65;;
75437;SDS011;64015;49.392;15.582;2023-02-07T04:21:51;19.15;;;7.57;;
75437;SDS011;64015;49.392;15.582;2023-02-07T04:24:17;27.25;;;10.15;;
75437;SDS011;64015;49.392;15.582;2023-02-07T04:26:51;17.92;;;6.35;;
75437;SDS011;64015;49.392;15.582;2023-02-07T04:29:17;13.93;;;6.93;;
75437;SDS011;64015;49.392;15.582;2023-02-07T04:31:43;20.85;;;6.95;;
75437;SDS011;64015;49.392;15.582;2023-02-07T04:34:09;16.75;;;7.78;;
75437;SDS011;64015;49.392;15.582;2023-02-07T04:36:36;19.90;;;7.28;;
75437;SDS011;64015;49.392;15.582;2023-02-07T04:39:01;16.02;;;7.60;;
75437;SDS011;64015;49.392;15.582;2023-02-07T04:41:28;20.52;;;7.18;;
75437;SDS011;64015;49.392;15.582;2023-02-07T04:43:53;19.73;;;7.72;;
75437;SDS011;64015;49.392;15.582;2023-02-07T04:46:19;19.98;;;7.82;;
75437;SDS011;64015;49.392;15.582;2023-02-07T04:48:45;23.33;;;7.82;;
75437;SDS011;64015;49.392;15.582;2023-02-07T04:51:13;22.92;;;9.02;;
75437;SDS011;64015;49.392;15.582;2023-02-07T04:53:39;18.80;;;7.13;;
75437;SDS011;64015;49.392;15.582;2023-02-07T04:56:05;15.82;;;6.63;;
75437;SDS011;64015;49.392;15.582;2023-02-07T04:58:30;21.45;;;7.43;;
75437;SDS011;64015;49.392;15.582;2023-02-07T05:00:56;10.65;;;5.90;;
75437;SDS011;64015;49.392;15.582;2023-02-07T05:03:28;18.92;;;7.15;;
75437;SDS011;64015;49.392;15.582;2023-02-07T05:05:54;17.05;;;6.43;;
75437;SDS011;64015;49.392;15.582;2023-02-07T05:08:19;16.65;;;7.22;;
75437;SDS011;64015;49.392;15.582;2023-02-07T05:13:37;17.98;;;8.40;;
75437;SDS011;64015;49.392;15.582;2023-02-07T05:16:04;15.40;;;6.30;;
75437;SDS011;64015;49.392;15.582;2023-02-07T05:18:30;19.08;;;7.30;;
75437;SDS011;64015;49.392;15.582;2023-02-07T05:20:56;9.57;;;5.45;;
75437;SDS011;64015;49.392;15.582;2023-02-07T05:23:22;19.15;;;7.70;;
75437;SDS011;64015;49.392;15.582;2023-02-07T05:25:48;19.48;;;7.65;;
75437;SDS011;64015;49.392;15.582;2023-02-07T05:28:14;18.38;;;6.50;;
75437;SDS011;64015;49.392;15.582;2023-02-07T05:31:26;15.48;;;7.10;;
75437;SDS011;64015;49.392;15.582;2023-02-07T05:34:09;18.92;;;5.57;;
75437;SDS011;64015;49.392;15.582;2023-02-07T05:36:35;21.38;;;7.93;;
75437;SDS011;64015;49.392;15.582;2023-02-07T05:39:01;22.38;;;8.65;;
75437;SDS011;64015;49.392;15.582;2023-02-07T05:41:27;18.85;;;7.03;;
75437;SDS011;64015;49.392;15.582;2023-02-07T05:43:52;14.48;;;6.50;;
75437;SDS011;64015;49.392;15.582;2023-02-07T05:46:18;13.90;;;6.82;;
75437;SDS011;64015;49.392;15.582;2023-02-07T05:48:44;22.08;;;7.65;;
75437;SDS011;64015;49.392;15.582;2023-02-07T05:51:10;17.65;;;6.30;;
75437;SDS011;64015;49.392;15.582;2023-02-07T05:53:38;27.58;;;9.60;;
75437;SDS011;64015;49.392;15.582;2023-02-07T05:56:04;18.38;;;7.85;;
75437;SDS011;64015;49.392;15.582;2023-02-07T05:58:30;17.13;;;8.02;;
75437;SDS011;64015;49.392;15.582;2023-02-07T06:00:56;12.15;;;5.07;;
75437;SDS011;64015;49.392;15.582;2023-02-07T06:03:21;17.08;;;7.47;;
75437;SDS011;64015;49.392;15.582;2023-02-07T06:05:47;17.83;;;8.40;;
75437;SDS011;64015;49.392;15.582;2023-02-07T06:08:18;15.35;;;6.22;;
75437;SDS011;64015;49.392;15.582;2023-02-07T06:10:44;19.10;;;8.43;;
75437;SDS011;64015;49.392;15.582;2023-02-07T06:13:12;12.65;;;5.85;;
75437;SDS011;64015;49.392;15.582;2023-02-07T06:15:38;16.35;;;7.85;;
75437;SDS011;64015;49.392;15.582;2023-02-07T06:18:04;13.75;;;6.75;;
75437;SDS011;64015;49.392;15.582;2023-02-07T06:20:30;22.48;;;6.80;;
75437;SDS011;64015;49.392;15.582;2023-02-07T06:22:55;24.75;;;8.75;;
75437;SDS011;64015;49.392;15.582;2023-02-07T06:25:21;15.32;;;5.80;;
75437;SDS011;64015;49.392;15.582;2023-02-07T06:27:47;22.65;;;8.98;;
75437;SDS011;64015;49.392;15.582;2023-02-07T06:30:13;18.48;;;6.53;;
75437;SDS011;64015;49.392;15.582;2023-02-07T06:32:38;18.05;;;7.78;;
75437;SDS011;64015;49.392;15.582;2023-02-07T06:35:04;15.82;;;6.22;;
75437;SDS011;64015;49.392;15.582;2023-02-07T06:37:31;25.67;;;7.72;;
75437;SDS011;64015;49.392;15.582;2023-02-07T06:40:06;15.18;;;6.60;;
75437;SDS011;64015;49.392;15.582;2023-02-07T06:42:32;16.48;;;7.18;;
75437;SDS011;64015;49.392;15.582;2023-02-07T06:44:58;18.52;;;6.75;;
75437;SDS011;64015;49.392;15.582;2023-02-07T06:47:24;18.45;;;6.88;;
75437;SDS011;64015;49.392;15.582;2023-02-07T06:49:50;14.68;;;6.22;;
75437;SDS011;64015;49.392;15.582;2023-02-07T06:52:16;15.20;;;6.85;;
75437;SDS011;64015;49.392;15.582;2023-02-07T06:54:45;14.88;;;7.15;;
75437;SDS011;64015;49.392;15.582;2023-02-07T06:57:10;17.23;;;7.75;;
75437;SDS011;64015;49.392;15.582;2023-02-07T06:59:36;19.58;;;7.03;;
75437;SDS011;64015;49.392;15.582;2023-02-07T07:02:02;19.23;;;8.95;;
75437;SDS011;64015;49.392;15.582;2023-02-07T07:04:28;20.90;;;8.30;;
75437;SDS011;64015;49.392;15.582;2023-02-07T07:06:54;21.77;;;9.70;;
75437;SDS011;64015;49.392;15.582;2023-02-07T07:09:20;16.02;;;7.35;;
75437;SDS011;64015;49.392;15.582;2023-02-07T07:11:46;17.05;;;7.70;;
75437;SDS011;64015;49.392;15.582;2023-02-07T07:14:12;17.27;;;7.35;;
75437;SDS011;64015;49.392;15.582;2023-02-07T07:16:38;17.42;;;7.82;;
75437;SDS011;64015;49.392;15.582;2023-02-07T07:19:05;23.90;;;7.97;;
75437;SDS011;64015;49.392;15.582;2023-02-07T07:21:31;18.90;;;7.78;;
75437;SDS011;64015;49.392;15.582;2023-02-07T07:23:57;19.02;;;8.38;;
75437;SDS011;64015;49.392;15.582;2023-02-07T07:26:23;17.95;;;7.63;;
75437;SDS011;64015;49.392;15.582;2023-02-07T07:28:49;16.52;;;7.38;;
75437;SDS011;64015;49.392;15.582;2023-02-07T07:31:15;25.58;;;8.93;;
75437;SDS011;64015;49.392;15.582;2023-02-07T07:33:41;26.73;;;9.70;;
75437;SDS011;64015;49.392;15.582;2023-02-07T07:36:06;18.52;;;8.57;;
75437;SDS011;64015;49.392;15.582;2023-02-07T07:38:33;19.77;;;7.72;;
75437;SDS011;64015;49.392;15.582;2023-02-07T07:41:01;26.77;;;9.27;;
75437;SDS011;64015;49.392;15.582;2023-02-07T07:43:27;18.40;;;7.97;;
75437;SDS011;64015;49.392;15.582;2023-02-07T07:45:56;20.42;;;9.10;;
75437;SDS011;64015;49.392;15.582;2023-02-07T07:48:24;19.45;;;8.18;;
75437;SDS011;64015;49.392;15.582;2023-02-07T07:50:50;23.75;;;8.88;;
75437;SDS011;64015;49.392;15.582;2023-02-07T07:53:17;28.63;;;10.63;;
75437;SDS011;64015;49.392;15.582;2023-02-07T07:55:50;21.90;;;8.32;;
75437;SDS011;64015;49.392;15.582;2023-02-07T08:00:44;14.18;;;7.82;;
75437;SDS011;64015;49.392;15.582;2023-02-07T08:03:10;21.90;;;9.88;;
75437;SDS011;64015;49.392;15.582;2023-02-07T08:05:36;27.23;;;10.07;;
75437;SDS011;64015;49.392;15.582;2023-02-07T08:08:05;24.90;;;10.95;;
75437;SDS011;64015;49.392;15.582;2023-02-07T08:10:34;27.65;;;12.45;;
75437;SDS011;64015;49.392;15.582;2023-02-07T08:13:00;38.13;;;13.00;;
75437;SDS011;64015;49.392;15.582;2023-02-07T08:15:25;28.67;;;10.05;;
75437;SDS011;64015;49.392;15.582;2023-02-07T08:17:51;31.42;;;10.02;;
75437;SDS011;64015;49.392;15.582;2023-02-07T08:20:17;22.83;;;10.98;;
75437;SDS011;64015;49.392;15.582;2023-02-07T08:22:43;33.00;;;12.50;;
75437;SDS011;64015;49.392;15.582;2023-02-07T08:25:11;18.88;;;10.35;;
75437;SDS011;64015;49.392;15.582;2023-02-07T08:27:37;30.27;;;13.35;;
75437;SDS011;64015;49.392;15.582;2023-02-07T08:30:04;23.60;;;10.88;;
75437;SDS011;64015;49.392;15.582;2023-02-07T08:32:31;26.73;;;11.95;;
75437;SDS011;64015;49.392;15.582;2023-02-07T08:34:57;43.25;;;14.05;;
75437;SDS011;64015;49.392;15.582;2023-02-07T08:37:23;34.72;;;13.52;;
75437;SDS011;64015;49.392;15.582;2023-02-07T08:39:49;37.45;;;15.55;;
75437;SDS011;64015;49.392;15.582;2023-02-07T08:42:20;45.10;;;15.82;;
75437;SDS011;64015;49.392;15.582;2023-02-07T08:44:57;41.35;;;13.02;;
75437;SDS011;64015;49.392;15.582;2023-02-07T08:47:26;32.80;;;13.73;;
75437;SDS011;64015;49.392;15.582;2023-02-07T08:49:51;39.42;;;15.32;;
75437;SDS011;64015;49.392;15.582;2023-02-07T08:52:17;40.55;;;14.90;;
75437;SDS011;64015;49.392;15.582;2023-02-07T08:54:43;33.97;;;13.45;;
75437;SDS011;64015;49.392;15.582;2023-02-07T08:57:09;40.00;;;14.50;;
75437;SDS011;64015;49.392;15.582;2023-02-07T08:59:40;38.17;;;13.82;;
75437;SDS011;64015;49.392;15.582;2023-02-07T09:02:06;38.05;;;14.70;;
75437;SDS011;64015;49.392;15.582;2023-02-07T09:04:32;43.50;;;15.93;;
75437;SDS011;64015;49.392;15.582;2023-02-07T09:06:57;34.50;;;15.35;;
75437;SDS011;64015;49.392;15.582;2023-02-07T09:09:25;40.28;;;13.68;;
75437;SDS011;64015;49.392;15.582;2023-02-07T09:11:50;35.08;;;13.45;;
75437;SDS011;64015;49.392;15.582;2023-02-07T09:14:16;35.70;;;14.80;;
75437;SDS011;64015;49.392;15.582;2023-02-07T09:16:42;32.70;;;13.90;;
75437;SDS011;64015;49.392;15.582;2023-02-07T09:19:17;35.85;;;13.63;;
75437;SDS011;64015;49.392;15.582;2023-02-07T09:21:43;34.15;;;12.90;;
75437;SDS011;64015;49.392;15.582;2023-02-07T09:24:09;35.40;;;13.18;;
75437;SDS011;64015;49.392;15.582;2023-02-07T09:26:35;39.08;;;14.30;;
75437;SDS011;64015;49.392;15.582;2023-02-07T09:29:04;26.88;;;12.25;;
75437;SDS011;64015;49.392;15.582;2023-02-07T09:31:32;39.70;;;13.90;;
75437;SDS011;64015;49.392;15.582;2023-02-07T09:33:58;39.97;;;14.93;;
75437;SDS011;64015;49.392;15.582;2023-02-07T09:36:25;35.38;;;14.35;;
75437;SDS011;64015;49.392;15.582;2023-02-07T09:39:03;32.35;;;13.15;;
75437;SDS011;64015;49.392;15.582;2023-02-07T09:47:19;30.40;;;13.18;;
75437;SDS011;64015;49.392;15.582;2023-02-07T09:52:33;32.20;;;13.95;;
75437;SDS011;64015;49.392;15.582;2023-02-07T09:55:04;28.50;;;13.25;;
75437;SDS011;64015;49.392;15.582;2023-02-07T09:57:35;33.88;;;14.35;;
75437;SDS011;64015;49.392;15.582;2023-02-07T10:00:13;29.48;;;13.23;;
75437;SDS011;64015;49.392;15.582;2023-02-07T10:02:50;31.98;;;12.68;;
75437;SDS011;64015;49.392;15.582;2023-02-07T10:07:51;23.80;;;10.57;;
75437;SDS011;64015;49.392;15.582;2023-02-07T10:10:30;26.50;;;11.23;;
75437;SDS011;64015;49.392;15.582;2023-02-07T10:22:32;27.08;;;12.55;;
75437;SDS011;64015;49.392;15.582;2023-02-07T10:32:41;22.90;;;11.00;;
75437;SDS011;64015;49.392;15.582;2023-02-07T10:35:35;20.90;;;9.95;;
75437;SDS011;64015;49.392;15.582;2023-02-07T10:38:19;19.23;;;9.50;;
75437;SDS011;64015;49.392;15.582;2023-02-07T10:40:53;22.75;;;10.32;;
75437;SDS011;64015;49.392;15.582;2023-02-07T10:43:29;21.52;;;10.60;;
75437;SDS011;64015;49.392;15.582;2023-02-07T10:46:03;19.27;;;9.38;;
75437;SDS011;64015;49.392;15.582;2023-02-07T10:48:31;20.80;;;9.68;;
75437;SDS011;64015;49.392;15.582;2023-02-07T10:50:58;19.02;;;9.32;;
75437;SDS011;64015;49.392;15.582;2023-02-07T10:54:26;18.58;;;9.90;;
75437;SDS011;64015;49.392;15.582;2023-02-07T10:56:33;20.52;;;9.45;;
75437;SDS011;64015;49.392;15.582;2023-02-07T11:02:00;22.38;;;10.15;;
75437;SDS011;64015;49.392;15.582;2023-02-07T11:04:47;15.40;;;7.50;;
75437;SDS011;64015;49.392;15.582;2023-02-07T11:07:13;14.50;;;7.57;;
75437;SDS011;64015;49.392;15.582;2023-02-07T11:09:40;18.48;;;7.82;;
75437;SDS011;64015;49.392;15.582;2023-02-07T11:12:19;14.93;;;7.20;;
75437;SDS011;64015;49.392;15.582;2023-02-07T11:17:46;16.25;;;7.28;;
75437;SDS011;64015;49.392;15.582;2023-02-07T11:20:27;17.73;;;9.13;;
75437;SDS011;64015;49.392;15.582;2023-02-07T11:22:53;13.70;;;7.00;;
75437;SDS011;64015;49.392;15.582;2023-02-07T11:25:35;14.23;;;7.53;;
75437;SDS011;64015;49.392;15.582;2023-02-07T11:28:17;17.73;;;8.10;;
75437;SDS011;64015;49.392;15.582;2023-02-07T11:30:55;16.13;;;7.85;;
75437;SDS011;64015;49.392;15.582;2023-02-07T11:33:26;16.63;;;7.60;;
75437;SDS011;64015;49.392;15.582;2023-02-07T11:36:10;18.08;;;8.52;;
75437;SDS011;64015;49.392;15.582;2023-02-07T11:38:48;16.95;;;10.35;;
75437;SDS011;64015;49.392;15.582;2023-02-07T11:41:21;19.27;;;9.30;;
75437;SDS011;64015;49.392;15.582;2023-02-07T11:44:02;15.95;;;8.75;;
75437;SDS011;64015;49.392;15.582;2023-02-07T11:46:45;16.95;;;8.35;;
75437;SDS011;64015;49.392;15.582;2023-02-07T11:49:29;18.88;;;8.52;;
75437;SDS011;64015;49.392;15.582;2023-02-07T11:52:10;20.27;;;10.07;;
75437;SDS011;64015;49.392;15.582;2023-02-07T11:54:37;20.90;;;9.85;;
75437;SDS011;64015;49.392;15.582;2023-02-07T11:57:06;23.67;;;12.93;;
75437;SDS011;64015;49.392;15.582;2023-02-07T12:02:26;23.05;;;11.18;;
75437;SDS011;64015;49.392;15.582;2023-02-07T12:05:34;23.33;;;11.80;;
75437;SDS011;64015;49.392;15.582;2023-02-07T12:11:17;19.63;;;9.77;;
75437;SDS011;64015;49.392;15.582;2023-02-07T12:28:03;20.08;;;11.15;;
75437;SDS011;64015;49.392;15.582;2023-02-07T12:32:07;24.00;;;12.02;;
75437;SDS011;64015;49.392;15.582;2023-02-07T12:37:38;24.73;;;11.32;;
75437;SDS011;64015;49.392;15.582;2023-02-07T12:47:39;27.75;;;14.02;;
75437;SDS011;64015;49.392;15.582;2023-02-07T13:02:45;29.13;;;14.45;;
75437;SDS011;64015;49.392;15.582;2023-02-07T13:19:59;21.05;;;11.65;;
75437;SDS011;64015;49.392;15.582;2023-02-07T13:26:08;23.70;;;12.40;;
75437;SDS011;64015;49.392;15.582;2023-02-07T13:31:18;22.20;;;11.88;;
75437;SDS011;64015;49.392;15.582;2023-02-07T13:34:15;23.48;;;12.73;;
75437;SDS011;64015;49.392;15.582;2023-02-07T13:36:49;26.23;;;12.52;;
75437;SDS011;64015;49.392;15.582;2023-02-07T13:42:50;23.98;;;12.32;;
75437;SDS011;64015;49.392;15.582;2023-02-07T13:49:22;23.17;;;12.23;;
75437;SDS011;64015;49.392;15.582;2023-02-07T13:52:09;26.05;;;13.18;;
75437;SDS011;64015;49.392;15.582;2023-02-07T13:57:47;22.58;;;11.77;;
75437;SDS011;64015;49.392;15.582;2023-02-07T14:00:57;22.85;;;11.35;;
75437;SDS011;64015;49.392;15.582;2023-02-07T14:03:34;17.75;;;9.98;;
75437;SDS011;64015;49.392;15.582;2023-02-07T14:08:56;20.02;;;10.15;;
75437;SDS011;64015;49.392;15.582;2023-02-07T14:11:55;18.05;;;10.20;;
75437;SDS011;64015;49.392;15.582;2023-02-07T14:14:33;22.52;;;11.30;;
75437;SDS011;64015;49.392;15.582;2023-02-07T14:17:14;23.08;;;11.80;;
75437;SDS011;64015;49.392;15.582;2023-02-07T14:20:44;25.08;;;12.70;;
75437;SDS011;64015;49.392;15.582;2023-02-07T14:23:13;23.17;;;11.60;;
75437;SDS011;64015;49.392;15.582;2023-02-07T14:25:44;21.10;;;11.15;;
75437;SDS011;64015;49.392;15.582;2023-02-07T14:28:39;19.73;;;10.85;;
75437;SDS011;64015;49.392;15.582;2023-02-07T14:31:18;22.65;;;11.75;;
75437;SDS011;64015;49.392;15.582;2023-02-07T14:34:09;24.13;;;11.05;;
75437;SDS011;64015;49.392;15.582;2023-02-07T14:37:18;25.45;;;12.50;;
75437;SDS011;64015;49.392;15.582;2023-02-07T14:39:52;22.55;;;11.23;;
75437;SDS011;64015;49.392;15.582;2023-02-07T14:42:33;23.27;;;12.18;;
75437;SDS011;64015;49.392;15.582;2023-02-07T14:45:17;31.80;;;14.05;;
75437;SDS011;64015;49.392;15.582;2023-02-07T14:47:44;28.23;;;13.25;;
75437;SDS011;64015;49.392;15.582;2023-02-07T14:50:15;29.25;;;13.35;;
75437;SDS011;64015;49.392;15.582;2023-02-07T14:52:59;26.23;;;12.02;;
75437;SDS011;64015;49.392;15.582;2023-02-07T14:55:33;26.70;;;12.77;;
75437;SDS011;64015;49.392;15.582;2023-02-07T14:58:36;26.70;;;13.48;;
75437;SDS011;64015;49.392;15.582;2023-02-07T15:01:35;25.95;;;13.85;;
75437;SDS011;64015;49.392;15.582;2023-02-07T15:07:15;25.00;;;11.50;;
75437;SDS011;64015;49.392;15.582;2023-02-07T15:09:56;27.98;;;12.25;;
75437;SDS011;64015;49.392;15.582;2023-02-07T15:16:15;22.77;;;11.38;;
75437;SDS011;64015;49.392;15.582;2023-02-07T15:18:40;27.60;;;13.32;;
75437;SDS011;64015;49.392;15.582;2023-02-07T15:21:41;32.63;;;15.02;;
75437;SDS011;64015;49.392;15.582;2023-02-07T15:24:36;38.20;;;14.85;;
75437;SDS011;64015;49.392;15.582;2023-02-07T15:27:20;21.98;;;12.00;;
75437;SDS011;64015;49.392;15.582;2023-02-07T15:30:02;29.63;;;13.93;;
75437;SDS011;64015;49.392;15.582;2023-02-07T15:32:33;28.17;;;12.85;;
75437;SDS011;64015;49.392;15.582;2023-02-07T15:35:36;30.80;;;13.68;;
75437;SDS011;64015;49.392;15.582;2023-02-07T15:39:05;27.23;;;11.35;;
75437;SDS011;64015;49.392;15.582;2023-02-07T15:41:04;31.60;;;14.10;;
75437;SDS011;64015;49.392;15.582;2023-02-07T15:49:26;27.80;;;12.68;;
75437;SDS011;64015;49.392;15.582;2023-02-07T15:51:57;27.02;;;12.40;;
75437;SDS011;64015;49.392;15.582;2023-02-07T15:54:25;30.98;;;12.85;;
75437;SDS011;64015;49.392;15.582;2023-02-07T15:56:53;29.48;;;11.82;;
75437;SDS011;64015;49.392;15.582;2023-02-07T15:59:45;31.27;;;13.82;;
75437;SDS011;64015;49.392;15.582;2023-02-07T16:02:26;28.35;;;12.90;;
75437;SDS011;64015;49.392;15.582;2023-02-07T16:05:17;31.30;;;12.98;;
75437;SDS011;64015;49.392;15.582;2023-02-07T16:08:27;31.33;;;12.18;;
75437;SDS011;64015;49.392;15.582;2023-02-07T16:30:28;30.90;;;12.10;;
75437;SDS011;64015;49.392;15.582;2023-02-07T16:33:16;33.53;;;11.50;;
75437;SDS011;64015;49.392;15.582;2023-02-07T16:39:17;29.73;;;11.77;;
75437;SDS011;64015;49.392;15.582;2023-02-07T16:41:46;31.38;;;11.30;;
75437;SDS011;64015;49.392;15.582;2023-02-07T16:44:25;25.42;;;12.27;;
75437;SDS011;64015;49.392;15.582;2023-02-07T16:47:04;34.47;;;13.23;;
75437;SDS011;64015;49.392;15.582;2023-02-07T16:49:48;35.75;;;12.43;;
75437;SDS011;64015;49.392;15.582;2023-02-07T16:52:51;35.97;;;14.52;;
75437;SDS011;64015;49.392;15.582;2023-02-07T16:55:42;30.42;;;15.40;;
75437;SDS011;64015;49.392;15.582;2023-02-07T16:58:27;46.08;;;23.55;;
75437;SDS011;64015;49.392;15.582;2023-02-07T17:00:58;32.97;;;15.02;;
75437;SDS011;64015;49.392;15.582;2023-02-07T17:03:49;45.17;;;15.82;;
75437;SDS011;64015;49.392;15.582;2023-02-07T17:06:16;49.30;;;23.65;;
75437;SDS011;64015;49.392;15.582;2023-02-07T17:08:43;47.75;;;23.33;;
75437;SDS011;64015;49.392;15.582;2023-02-07T17:11:19;48.45;;;19.80;;
75437;SDS011;64015;49.392;15.582;2023-02-07T17:13:59;48.13;;;20.33;;
75437;SDS011;64015;49.392;15.582;2023-02-07T17:16:25;46.25;;;18.52;;
75437;SDS011;64015;49.392;15.582;2023-02-07T17:21:27;41.28;;;16.38;;
75437;SDS011;64015;49.392;15.582;2023-02-07T17:23:56;47.97;;;17.33;;
75437;SDS011;64015;49.392;15.582;2023-02-07T17:26:36;37.38;;;13.88;;
75437;SDS011;64015;49.392;15.582;2023-02-07T17:29:16;47.13;;;17.30;;
75437;SDS011;64015;49.392;15.582;2023-02-07T17:31:59;37.75;;;13.80;;
75437;SDS011;64015;49.392;15.582;2023-02-07T17:34:26;40.70;;;15.48;;
75437;SDS011;64015;49.392;15.582;2023-02-07T17:37:00;45.05;;;18.15;;
75437;SDS011;64015;49.392;15.582;2023-02-07T17:39:33;39.47;;;16.42;;
75437;SDS011;64015;49.392;15.582;2023-02-07T17:42:14;38.58;;;14.10;;
75437;SDS011;64015;49.392;15.582;2023-02-07T17:44:40;34.10;;;13.07;;
75437;SDS011;64015;49.392;15.582;2023-02-07T17:47:08;39.80;;;13.38;;
75437;SDS011;64015;49.392;15.582;2023-02-07T17:49:46;37.38;;;14.40;;
75437;SDS011;64015;49.392;15.582;2023-02-07T17:52:12;38.42;;;13.63;;
75437;SDS011;64015;49.392;15.582;2023-02-07T17:54:39;38.03;;;13.80;;
75437;SDS011;64015;49.392;15.582;2023-02-07T17:57:14;36.90;;;13.88;;
75437;SDS011;64015;49.392;15.582;2023-02-07T17:59:40;31.75;;;12.57;;